Aérodrome :
LOGIN :

S'inscrire | Disclaimer

   EN    FR    IT 

 










Légende :    VFR   VFR Marginal   IFR   IFR Intensif   IFR Très Intensif
Visi : 
Plafond : 
>= 8 km
>= 3000ft
5 à 8 km
1000 à 3000 ft
1500m à 5 km
500 à 1000 ft
800 à 1500m
200 à 500 ft
< 800m
< 200 ft
Symboles :   Orages  Brouillard  Fortes neiges  Fortes précipitations  Vent > 20 kt
SIGMETs :   Divers  Orages  Givrage  Turbulence  Onde Orograph.  Cendres Volcan.







- Altitude de l'aérodrome : 13 ft
- Code IATA : LYX
- Voir les cartes d'approche


EGMD - Lydd

DERNIER METAR :
  • 210820Z 26005KT 220V300 9999 FEW047 19/15 Q1021

METARs EXPIRÉS :
  • 210750Z 26004KT 9999 FEW047 18/15 Q1021
  • 210720Z AUTO 28005KT 250V310 9999 BKN046/// 17/15 Q1021
  • 210650Z AUTO 29005KT 9999 SCT046/// 16/14 Q1021
  • 210620Z AUTO 29006KT 9999 OVC046/// 15/13 Q1020
  • 210550Z AUTO 29008KT 9999 BKN045/// 14/13 Q1020
  • 210520Z AUTO 27004KT 9999 SCT046/// 13/12 Q1019

TAF TAF EGMD
Valide du 21 à 06h jusqu'au 21 à 15h UTC


210452Z 2106/2115 28005KT 9999 FEW040
BECMG 2109/2112 22015KT
PROB30
TEMPO 2112/2115 21015G25KT
ATIS : +44 1797 322 422
Pas de NOTAMs connus pour ce terrain.



MET'MAP, la Météo Aéronautique d'un coup d'oeil ! - Copyright ORBIFLY Décembre 2007 - Disclaimer

ORBIFLY MET'MAP TEAM :

Programmation & Développement : Alexandra Zaïnal
Conception & Développement : Baudouin d'Aumeries
Co-Programmation & Développement : Marc-Olivier Méhu
Soutien technique & logistique : Manuel Goepfert

Contact : metmap@orbifly.com




SOURCES & CREDITS :

   NOAA